Time;durP1;ratioP1;P1;durP2;ratioP2;P2;SDS_P1;SDS_P2;PMS_P1;PMS_P2;Temp;Humidity;BMP_temperature;BMP_pressure;BME280_temperature;BME280_humidity;BME280_pressure;Samples;Min_cycle;Max_cycle;Signal;HPM_P1;HPM_P2
2023/04/02 00:01:17;;;;;;;;;2.50;2.50;;;;;;;;5065367;28;8737;-86
2023/04/02 00:03:43;;;;;;;;;3.75;3.75;;;;;;;;5093723;28;11594;-86
2023/04/02 00:06:44;;;;;;;;;7.00;3.00;;;;;;;;5103650;28;11377;-85
2023/04/02 00:09:12;;;;;;;;;4.00;2.00;;;;;;;;5088858;28;8732;-85
2023/04/02 00:11:39;;;;;;;;;6.00;2.00;;;;;;;;5084574;28;11361;-86
2023/04/02 00:14:13;;;;;;;;;8.25;4.00;;;;;;;;5103417;28;11327;-86
2023/04/02 00:16:38;;;;;;;;;2.25;1.00;;;;;;;;5084856;28;12329;-86
2023/04/02 00:19:06;;;;;;;;;2.00;2.00;;;;;;;;5102935;28;11151;-86
2023/04/02 00:21:33;;;;;;;;;3.50;3.00;;;;;;;;5103141;28;8733;-86
2023/04/02 00:23:59;;;;;;;;;3.50;3.50;;;;;;;;5055466;28;11584;-86
2023/04/02 00:26:27;;;;;;;;;2.50;2.50;;;;;;;;5058616;28;12265;-87
2023/04/02 00:28:53;;;;;;;;;4.25;4.25;;;;;;;;5060744;28;8881;-86
2023/04/02 00:31:19;;;;;;;;;5.50;5.50;;;;;;;;5061132;28;11412;-87
2023/04/02 00:33:45;;;;;;;;;3.75;3.00;;;;;;;;5057068;28;8816;-87
2023/04/02 00:36:10;;;;;;;;;7.75;3.00;;;;;;;;5042928;28;8732;-87
2023/04/02 00:38:37;;;;;;;;;7.50;4.50;;;;;;;;5042416;28;11423;-87
2023/04/02 00:41:03;;;;;;;;;4.00;3.50;;;;;;;;5040988;28;8763;-87
2023/04/02 00:43:36;;;;;;;;;3.00;2.00;;;;;;;;5042984;28;11528;-87
2023/04/02 00:46:04;;;;;;;;;3.00;3.00;;;;;;;;5042732;28;11400;-87
2023/04/02 00:48:32;;;;;;;;;4.25;3.25;;;;;;;;5058044;28;11108;-86
2023/04/02 00:51:21;;;;;;;;;9.00;4.50;;;;;;;;5060749;28;11370;-87
2023/04/02 00:53:47;;;;;;;;;7.00;4.25;;;;;;;;5039575;28;11483;-86
2023/04/02 00:56:20;;;;;;;;;5.50;2.25;;;;;;;;5022358;28;11292;-86
2023/04/02 00:58:50;;;;;;;;;4.75;3.75;;;;;;;;5023089;28;11495;-86
2023/04/02 01:01:17;;;;;;;;;3.00;2.75;;;;;;;;5022938;28;11380;-87
2023/04/02 01:03:52;;;;;;;;;3.50;2.25;;;;;;;;5039777;28;11480;-86
2023/04/02 01:06:18;;;;;;;;;5.50;3.25;;;;;;;;5039890;28;11504;-84
2023/04/02 01:09:02;;;;;;;;;3.00;3.00;;;;;;;;5023356;28;12348;-88
2023/04/02 01:11:46;;;;;;;;;3.00;3.00;;;;;;;;5022830;28;8892;-87
2023/04/02 01:14:31;;;;;;;;;3.00;1.25;;;;;;;;5023208;28;12369;-86
2023/04/02 01:17:02;;;;;;;;;1.75;1.00;;;;;;;;5022414;28;11342;-86
2023/04/02 01:20:00;;;;;;;;;4.50;2.75;;;;;;;;5014901;28;11270;-86
2023/04/02 01:22:29;;;;;;;;;4.00;1.75;;;;;;;;4981316;28;11461;-88
2023/04/02 01:24:56;;;;;;;;;2.25;2.25;;;;;;;;4982980;28;11687;-85
2023/04/02 01:27:28;;;;;;;;;1.00;1.00;;;;;;;;4983362;28;11481;-86
2023/04/02 01:29:55;;;;;;;;;1.00;1.00;;;;;;;;4985460;28;11190;-86
2023/04/02 01:32:22;;;;;;;;;1.25;1.25;;;;;;;;5019326;28;11401;-87
2023/04/02 01:34:48;;;;;;;;;2.50;1.00;;;;;;;;5019631;28;11437;-86
2023/04/02 01:37:14;;;;;;;;;3.25;0.50;;;;;;;;5002866;28;11010;-86
2023/04/02 01:39:45;;;;;;;;;3.50;3.50;;;;;;;;5003077;28;11531;-86
2023/04/02 01:42:13;;;;;;;;;2.50;1.50;;;;;;;;5020804;28;8788;-85
2023/04/02 01:44:41;;;;;;;;;1.00;1.00;;;;;;;;5006021;28;11414;-85
2023/04/02 01:47:10;;;;;;;;;1.00;1.00;;;;;;;;5022767;28;11534;-87
2023/04/02 01:49:36;;;;;;;;;4.25;1.00;;;;;;;;5023021;28;11465;-85
2023/04/02 01:52:01;;;;;;;;;1.25;1.25;;;;;;;;5022539;28;11577;-87
2023/04/02 01:54:27;;;;;;;;;0.75;0.75;;;;;;;;5022217;28;10123;-85
2023/04/02 01:56:54;;;;;;;;;1.75;1.75;;;;;;;;5023977;28;8751;-86
2023/04/02 01:59:21;;;;;;;;;0.00;0.00;;;;;;;;5064701;28;11382;-86
2023/04/02 02:02:05;;;;;;;;;1.00;1.00;;;;;;;;5065031;28;11401;-86
2023/04/02 02:04:31;;;;;;;;;1.00;1.00;;;;;;;;5063316;28;11357;-86
2023/04/02 02:06:59;;;;;;;;;1.50;1.00;;;;;;;;5064935;28;11522;-86
2023/04/02 02:09:26;;;;;;;;;1.25;1.00;;;;;;;;5063850;28;8795;-86
2023/04/02 02:11:52;;;;;;;;;3.00;2.00;;;;;;;;5051530;28;11475;-86
2023/04/02 02:14:22;;;;;;;;;1.00;1.00;;;;;;;;5042839;28;11466;-87
2023/04/02 02:16:48;;;;;;;;;2.75;0.00;;;;;;;;5043735;28;8739;-87
2023/04/02 02:19:36;;;;;;;;;1.25;1.00;;;;;;;;5043252;28;11201;-85
2023/04/02 02:22:11;;;;;;;;;1.00;1.00;;;;;;;;5032762;28;8816;-87
2023/04/02 02:24:36;;;;;;;;;0.00;0.00;;;;;;;;5061769;28;11447;-86
2023/04/02 02:27:15;;;;;;;;;2.00;2.00;;;;;;;;5064294;28;11081;-86
2023/04/02 02:29:41;;;;;;;;;1.00;1.00;;;;;;;;5079576;28;8755;-85
2023/04/02 02:32:08;;;;;;;;;0.50;0.50;;;;;;;;5063035;28;11451;-87
2023/04/02 02:34:38;;;;;;;;;1.00;0.00;;;;;;;;5064257;28;11494;-86
2023/04/02 02:37:06;;;;;;;;;2.00;0.00;;;;;;;;5063049;28;11005;-85
2023/04/02 02:39:47;;;;;;;;;1.00;1.00;;;;;;;;5063058;28;10790;-86
2023/04/02 02:42:16;;;;;;;;;1.00;0.00;;;;;;;;5063572;28;11396;-86
2023/04/02 02:44:47;;;;;;;;;0.50;0.50;;;;;;;;5062163;28;11394;-86
2023/04/02 02:47:27;;;;;;;;;1.00;1.00;;;;;;;;5064298;28;11399;-86
2023/04/02 02:50:02;;;;;;;;;2.00;0.00;;;;;;;;5064094;28;11400;-85
2023/04/02 02:52:34;;;;;;;;;0.00;0.00;;;;;;;;5062081;28;10957;-84
2023/04/02 02:55:15;;;;;;;;;0.00;0.00;;;;;;;;5063661;28;11385;-85
2023/04/02 02:58:03;;;;;;;;;0.00;0.00;;;;;;;;5063471;28;11335;-84
2023/04/02 03:00:30;;;;;;;;;0.00;0.00;;;;;;;;5063197;28;11353;-85
2023/04/02 03:03:00;;;;;;;;;0.00;0.00;;;;;;;;5062715;28;11422;-85
2023/04/02 03:05:31;;;;;;;;;0.00;0.00;;;;;;;;5062472;28;11415;-84
2023/04/02 03:08:07;;;;;;;;;0.25;0.00;;;;;;;;5050278;28;11175;-84
2023/04/02 03:10:39;;;;;;;;;0.00;0.00;;;;;;;;5044249;28;11390;-84
2023/04/02 03:13:22;;;;;;;;;0.75;0.00;;;;;;;;5063471;28;11400;-85
2023/04/02 03:15:52;;;;;;;;;0.00;0.00;;;;;;;;5063781;28;11403;-86
2023/04/02 03:18:34;;;;;;;;;1.00;0.00;;;;;;;;5062330;28;11346;-84
2023/04/02 03:21:21;;;;;;;;;0.75;0.00;;;;;;;;5042355;28;11503;-85
2023/04/02 03:24:10;;;;;;;;;0.00;0.00;;;;;;;;5053971;28;11574;-84
2023/04/02 03:26:45;;;;;;;;;0.50;0.50;;;;;;;;5070876;28;11392;-85
2023/04/02 03:29:23;;;;;;;;;0.25;0.25;;;;;;;;5082580;28;11362;-88
2023/04/02 03:31:53;;;;;;;;;1.00;1.00;;;;;;;;5070828;28;11378;-87
2023/04/02 03:34:22;;;;;;;;;1.75;1.00;;;;;;;;5069807;28;11426;-87
2023/04/02 03:36:55;;;;;;;;;0.25;0.25;;;;;;;;5082269;28;11409;-87
2023/04/02 03:39:20;;;;;;;;;1.00;1.00;;;;;;;;5083708;28;11528;-88
2023/04/02 03:41:55;;;;;;;;;1.50;0.00;;;;;;;;5070416;28;11218;-87
2023/04/02 03:44:27;;;;;;;;;3.00;1.00;;;;;;;;5065936;28;8924;-87
2023/04/02 03:46:57;;;;;;;;;3.00;1.25;;;;;;;;5083422;28;11416;-88
2023/04/02 03:49:42;;;;;;;;;3.75;2.00;;;;;;;;5083855;28;11312;-88
2023/04/02 03:52:13;;;;;;;;;2.00;2.00;;;;;;;;5081195;28;11400;-87
2023/04/02 03:54:39;;;;;;;;;7.75;2.75;;;;;;;;5081148;28;11442;-87
2023/04/02 03:57:10;;;;;;;;;4.25;1.50;;;;;;;;5080960;28;11461;-87
2023/04/02 03:59:40;;;;;;;;;2.25;2.25;;;;;;;;5081777;28;11519;-86
2023/04/02 04:02:24;;;;;;;;;4.50;3.50;;;;;;;;5081805;28;11365;-87
2023/04/02 04:04:51;;;;;;;;;7.25;4.00;;;;;;;;5082117;28;11449;-86
2023/04/02 04:07:37;;;;;;;;;4.75;2.50;;;;;;;;5076442;28;11409;-88
2023/04/02 04:10:05;;;;;;;;;6.50;4.00;;;;;;;;5062849;28;11410;-86
2023/04/02 04:12:33;;;;;;;;;7.25;4.75;;;;;;;;5069463;28;11548;-87
2023/04/02 04:15:09;;;;;;;;;4.50;4.50;;;;;;;;5082943;28;11391;-85
2023/04/02 04:17:50;;;;;;;;;6.25;4.50;;;;;;;;5079510;28;11377;-85
2023/04/02 04:20:20;;;;;;;;;7.00;3.25;;;;;;;;5081823;28;11447;-86
2023/04/02 04:22:48;;;;;;;;;7.50;4.00;;;;;;;;5084934;28;11375;-86
2023/04/02 04:25:32;;;;;;;;;3.00;3.00;;;;;;;;5084326;28;12243;-86
2023/04/02 04:28:08;;;;;;;;;7.00;4.50;;;;;;;;5102244;28;11382;-88
2023/04/02 04:30:44;;;;;;;;;6.00;5.00;;;;;;;;5070551;28;11507;-87
2023/04/02 04:33:38;;;;;;;;;8.50;6.00;;;;;;;;5103058;28;11346;-87
2023/04/02 04:36:05;;;;;;;;;4.50;4.50;;;;;;;;5100614;28;11309;-88
2023/04/02 04:38:38;;;;;;;;;7.25;5.50;;;;;;;;5084142;28;11324;-87
2023/04/02 04:41:29;;;;;;;;;5.50;5.50;;;;;;;;5101931;28;11479;-87
2023/04/02 04:44:01;;;;;;;;;7.00;4.25;;;;;;;;5080410;28;11380;-87
2023/04/02 04:46:46;;;;;;;;;7.75;6.00;;;;;;;;5103269;28;11319;-86
2023/04/02 04:49:25;;;;;;;;;6.25;6.25;;;;;;;;5102441;28;11395;-88
2023/04/02 04:51:52;;;;;;;;;11.75;8.00;;;;;;;;5102242;28;11339;-88
2023/04/02 04:54:19;;;;;;;;;7.25;6.50;;;;;;;;5102663;28;11534;-86
2023/04/02 04:56:47;;;;;;;;;9.00;7.00;;;;;;;;5083746;28;12403;-87
2023/04/02 04:59:26;;;;;;;;;16.50;9.25;;;;;;;;5102527;28;11386;-87
2023/04/02 05:01:54;;;;;;;;;16.50;8.75;;;;;;;;5084180;28;11312;-87
2023/04/02 05:04:30;;;;;;;;;12.00;8.00;;;;;;;;5084242;28;11362;-86
2023/04/02 05:07:02;;;;;;;;;7.50;6.25;;;;;;;;5085305;28;11376;-86
2023/04/02 05:09:46;;;;;;;;;12.00;11.25;;;;;;;;5102165;28;11333;-88
2023/04/02 05:12:25;;;;;;;;;11.50;8.00;;;;;;;;5101970;28;11480;-89
2023/04/02 05:14:55;;;;;;;;;11.00;8.00;;;;;;;;5101815;28;11894;-85
2023/04/02 05:17:30;;;;;;;;;9.25;8.00;;;;;;;;5107259;28;11323;-85
2023/04/02 05:20:09;;;;;;;;;8.50;7.50;;;;;;;;5066797;28;11381;-88
2023/04/02 05:22:40;;;;;;;;;14.00;8.00;;;;;;;;5087346;28;11327;-88
2023/04/02 05:25:16;;;;;;;;;6.75;6.75;;;;;;;;5086509;28;12366;-86
2023/04/02 05:27:57;;;;;;;;;9.00;8.00;;;;;;;;5083546;28;11501;-86
2023/04/02 05:30:23;;;;;;;;;9.75;5.00;;;;;;;;5080608;28;11370;-86
2023/04/02 05:32:53;;;;;;;;;11.00;8.75;;;;;;;;5103316;28;11401;-86
2023/04/02 05:35:21;;;;;;;;;7.00;7.00;;;;;;;;5066718;28;8892;-86
2023/04/02 05:37:47;;;;;;;;;9.00;7.00;;;;;;;;5083962;28;11324;-87
2023/04/02 05:40:23;;;;;;;;;9.00;8.50;;;;;;;;5092168;28;11386;-85
2023/04/02 05:42:50;;;;;;;;;11.50;9.25;;;;;;;;5078397;28;11497;-86
2023/04/02 05:45:19;;;;;;;;;9.50;6.75;;;;;;;;5074669;28;11415;-87
2023/04/02 05:47:46;;;;;;;;;8.00;8.00;;;;;;;;5092481;28;11447;-87
2023/04/02 05:50:14;;;;;;;;;8.75;8.00;;;;;;;;5091788;28;12337;-86
2023/04/02 05:53:02;;;;;;;;;9.50;8.25;;;;;;;;5073530;28;11568;-85
2023/04/02 05:55:46;;;;;;;;;9.75;8.00;;;;;;;;5065325;28;11351;-86
2023/04/02 05:58:25;;;;;;;;;10.25;6.50;;;;;;;;5102804;28;11315;-87
2023/04/02 06:00:56;;;;;;;;;8.50;6.00;;;;;;;;5102520;28;11321;-86
2023/04/02 06:03:43;;;;;;;;;12.75;7.25;;;;;;;;5102700;28;11292;-87
2023/04/02 06:06:20;;;;;;;;;5.50;5.00;;;;;;;;5084455;28;11376;-85
2023/04/02 06:09:00;;;;;;;;;6.50;6.25;;;;;;;;5085436;28;11421;-86
2023/04/02 06:11:29;;;;;;;;;11.00;8.00;;;;;;;;5102673;28;11398;-86
2023/04/02 06:13:54;;;;;;;;;5.00;3.25;;;;;;;;5086135;28;11383;-87
2023/04/02 06:16:21;;;;;;;;;7.00;6.00;;;;;;;;5086157;28;11369;-86
2023/04/02 06:18:47;;;;;;;;;4.50;4.50;;;;;;;;5105114;28;8723;-87
2023/04/02 06:21:15;;;;;;;;;5.00;5.00;;;;;;;;5085758;28;11413;-86
2023/04/02 06:23:45;;;;;;;;;4.00;4.00;;;;;;;;5104225;28;8884;-86
2023/04/02 06:26:23;;;;;;;;;8.25;8.25;;;;;;;;5085585;28;11335;-86
2023/04/02 06:29:07;;;;;;;;;4.00;1.50;;;;;;;;5104079;28;11516;-86
2023/04/02 06:31:49;;;;;;;;;6.75;5.00;;;;;;;;5103964;28;11373;-85
2023/04/02 06:34:25;;;;;;;;;13.50;7.00;;;;;;;;5104326;28;11335;-83
2023/04/02 06:36:53;;;;;;;;;6.25;5.00;;;;;;;;5065871;28;11495;-86
2023/04/02 06:39:22;;;;;;;;;8.25;7.75;;;;;;;;5065265;28;11393;-86
2023/04/02 06:42:03;;;;;;;;;5.25;3.00;;;;;;;;5082663;28;11442;-87
2023/04/02 06:44:31;;;;;;;;;9.00;6.00;;;;;;;;5064742;28;11405;-87
2023/04/02 06:46:58;;;;;;;;;4.00;4.00;;;;;;;;5083070;28;11381;-86
2023/04/02 06:49:37;;;;;;;;;9.00;7.00;;;;;;;;5064686;28;11383;-87
2023/04/02 06:52:05;;;;;;;;;9.00;4.25;;;;;;;;5082762;28;12304;-87
2023/04/02 06:54:30;;;;;;;;;9.00;6.50;;;;;;;;5064485;28;11307;-86
2023/04/02 06:56:56;;;;;;;;;4.75;3.75;;;;;;;;5073170;28;11393;-86
2023/04/02 06:59:22;;;;;;;;;8.25;7.25;;;;;;;;5104418;28;8767;-87
2023/04/02 07:01:50;;;;;;;;;8.25;7.00;;;;;;;;5085469;28;10075;-86
2023/04/02 07:04:17;;;;;;;;;8.25;5.00;;;;;;;;5084690;28;11393;-87
2023/04/02 07:06:42;;;;;;;;;7.50;3.50;;;;;;;;5083375;28;11383;-86
2023/04/02 07:09:07;;;;;;;;;7.00;4.00;;;;;;;;5078841;28;11370;-87
2023/04/02 07:11:33;;;;;;;;;9.25;5.00;;;;;;;;5103595;28;8783;-86
2023/04/02 07:13:58;;;;;;;;;11.00;8.00;;;;;;;;5085666;28;8811;-86
2023/04/02 07:16:24;;;;;;;;;7.75;7.75;;;;;;;;5085711;28;8814;-86
2023/04/02 07:18:50;;;;;;;;;6.25;2.50;;;;;;;;5103715;28;8728;-87
2023/04/02 07:21:15;;;;;;;;;9.00;4.25;;;;;;;;5085449;28;11404;-86
2023/04/02 07:23:40;;;;;;;;;6.25;6.25;;;;;;;;5074189;28;8841;-86
2023/04/02 07:26:06;;;;;;;;;6.50;5.00;;;;;;;;5077202;28;8805;-86
2023/04/02 07:28:32;;;;;;;;;8.75;7.50;;;;;;;;5064687;28;8797;-86
2023/04/02 07:30:57;;;;;;;;;6.50;6.50;;;;;;;;5064866;28;10018;-86
2023/04/02 07:33:24;;;;;;;;;6.75;5.50;;;;;;;;5083258;28;8820;-86
2023/04/02 07:35:51;;;;;;;;;6.00;3.50;;;;;;;;5065171;28;8837;-86
2023/04/02 07:38:16;;;;;;;;;8.50;6.50;;;;;;;;5064805;28;11322;-88
2023/04/02 07:40:42;;;;;;;;;15.75;8.00;;;;;;;;5082078;28;11385;-86
2023/04/02 07:43:07;;;;;;;;;10.50;10.50;;;;;;;;5064954;28;8805;-87
2023/04/02 07:45:32;;;;;;;;;10.50;7.00;;;;;;;;5065059;28;8804;-86
2023/04/02 07:48:03;;;;;;;;;10.75;7.50;;;;;;;;5064693;28;8808;-87
2023/04/02 07:50:28;;;;;;;;;6.75;5.25;;;;;;;;5083069;28;8722;-86
2023/04/02 07:52:53;;;;;;;;;8.50;6.50;;;;;;;;5064534;28;11536;-86
2023/04/02 07:55:18;;;;;;;;;4.75;4.00;;;;;;;;5064683;28;8797;-86
2023/04/02 07:57:47;;;;;;;;;8.50;7.50;;;;;;;;5064175;28;8789;-87
2023/04/02 08:00:13;;;;;;;;;12.50;7.25;;;;;;;;5065032;28;10287;-88
2023/04/02 08:02:38;;;;;;;;;5.50;5.50;;;;;;;;5064014;28;11346;-87
2023/04/02 08:05:04;;;;;;;;;9.00;7.00;;;;;;;;5064366;28;11364;-87
2023/04/02 08:07:29;;;;;;;;;7.50;7.50;;;;;;;;5064874;28;8927;-87
2023/04/02 08:09:54;;;;;;;;;13.25;9.50;;;;;;;;5064343;28;9821;-87
2023/04/02 08:12:19;;;;;;;;;12.25;7.75;;;;;;;;5064135;28;8847;-87
2023/04/02 08:14:45;;;;;;;;;9.00;9.00;;;;;;;;5080478;28;9640;-86
2023/04/02 08:17:10;;;;;;;;;10.75;8.00;;;;;;;;5084261;28;8795;-87
2023/04/02 08:19:36;;;;;;;;;9.50;8.50;;;;;;;;5103117;28;8810;-87
2023/04/02 08:22:01;;;;;;;;;11.50;9.25;;;;;;;;5102475;28;8791;-88
2023/04/02 08:24:27;;;;;;;;;14.50;10.75;;;;;;;;5063930;28;8845;-87
2023/04/02 08:26:53;;;;;;;;;11.25;11.25;;;;;;;;5060616;28;8845;-88
2023/04/02 08:29:18;;;;;;;;;18.25;11.00;;;;;;;;5062542;28;8859;-87
2023/04/02 08:31:44;;;;;;;;;13.50;13.50;;;;;;;;5061834;28;8882;-87
2023/04/02 08:34:09;;;;;;;;;15.25;12.25;;;;;;;;5060957;28;8946;-87
2023/04/02 08:36:36;;;;;;;;;13.50;11.50;;;;;;;;5062424;28;8790;-87
2023/04/02 08:39:03;;;;;;;;;10.75;7.75;;;;;;;;5062173;28;8754;-87
2023/04/02 08:41:34;;;;;;;;;9.50;8.75;;;;;;;;5062042;28;11386;-88
2023/04/02 08:44:00;;;;;;;;;16.00;11.00;;;;;;;;5062148;28;11498;-87
2023/04/02 08:46:28;;;;;;;;;12.75;9.00;;;;;;;;5060364;28;11440;-86
2023/04/02 08:48:55;;;;;;;;;9.50;7.25;;;;;;;;5060689;28;9943;-87
2023/04/02 08:51:26;;;;;;;;;9.00;4.25;;;;;;;;5062690;28;11383;-87
2023/04/02 08:53:54;;;;;;;;;12.25;8.25;;;;;;;;5065397;28;11432;-87
2023/04/02 08:56:39;;;;;;;;;9.00;6.75;;;;;;;;5063785;28;11532;-88
2023/04/02 08:59:23;;;;;;;;;12.25;9.00;;;;;;;;5065309;28;11408;-87
2023/04/02 09:01:55;;;;;;;;;8.00;8.00;;;;;;;;5063856;28;11470;-88
2023/04/02 09:04:22;;;;;;;;;13.50;8.75;;;;;;;;5063646;28;11475;-87
2023/04/02 09:06:48;;;;;;;;;10.75;8.50;;;;;;;;5065580;28;11453;-88
2023/04/02 09:09:15;;;;;;;;;15.50;8.75;;;;;;;;5063889;28;11455;-89
2023/04/02 09:11:47;;;;;;;;;11.75;8.00;;;;;;;;5065054;28;11421;-87
2023/04/02 09:14:26;;;;;;;;;14.00;12.75;;;;;;;;5063342;28;12156;-87
2023/04/02 09:16:53;;;;;;;;;21.75;16.00;;;;;;;;5063951;28;11411;-87
2023/04/02 09:19:24;;;;;;;;;18.75;15.00;;;;;;;;5063533;28;11528;-88
2023/04/02 09:21:58;;;;;;;;;10.50;10.00;;;;;;;;5065024;28;11434;-87
2023/04/02 09:24:24;;;;;;;;;12.75;9.25;;;;;;;;5063483;28;11427;-88
2023/04/02 09:26:49;;;;;;;;;14.50;11.00;;;;;;;;5064314;28;11446;-87
2023/04/02 09:29:24;;;;;;;;;11.25;9.25;;;;;;;;5062760;28;10119;-86
2023/04/02 09:32:08;;;;;;;;;11.00;10.50;;;;;;;;5044683;28;8793;-87
2023/04/02 09:34:35;;;;;;;;;18.25;11.75;;;;;;;;5044826;28;11553;-88
2023/04/02 09:37:06;;;;;;;;;26.75;23.50;;;;;;;;5043333;28;11571;-88
2023/04/02 09:39:31;;;;;;;;;57.25;39.50;;;;;;;;5043683;28;11551;-88
2023/04/02 09:41:57;;;;;;;;;24.00;18.00;;;;;;;;5044665;28;11693;-88
2023/04/02 09:44:26;;;;;;;;;23.00;19.25;;;;;;;;5044398;28;8812;-88
2023/04/02 09:46:58;;;;;;;;;17.25;12.75;;;;;;;;5043631;28;8764;-87
2023/04/02 09:49:25;;;;;;;;;36.75;28.00;;;;;;;;5044587;28;11445;-86
2023/04/02 09:52:10;;;;;;;;;39.25;31.50;;;;;;;;5044688;28;12516;-86
2023/04/02 09:54:40;;;;;;;;;30.75;18.00;;;;;;;;5042832;28;11591;-87
2023/04/02 09:57:16;;;;;;;;;27.75;23.50;;;;;;;;5042702;28;11593;-86
2023/04/02 09:59:41;;;;;;;;;9.75;9.00;;;;;;;;5043201;28;11469;-88
2023/04/02 10:02:27;;;;;;;;;10.75;8.00;;;;;;;;5041839;28;11543;-86
2023/04/02 10:04:52;;;;;;;;;8.75;5.50;;;;;;;;5043599;28;8833;-89
2023/04/02 10:07:36;;;;;;;;;5.00;5.00;;;;;;;;5043106;28;11440;-89
2023/04/02 10:10:17;;;;;;;;;25.75;12.50;;;;;;;;5045095;28;8777;-89
2023/04/02 10:12:44;;;;;;;;;9.00;6.00;;;;;;;;5043959;28;11479;-89
2023/04/02 10:15:20;;;;;;;;;11.25;5.75;;;;;;;;5043272;28;12445;-91
2023/04/02 10:17:48;;;;;;;;;11.50;7.75;;;;;;;;5043066;28;11498;-90
2023/04/02 10:20:18;;;;;;;;;17.25;12.00;;;;;;;;5043716;28;11383;-88
2023/04/02 10:22:45;;;;;;;;;17.75;8.00;;;;;;;;5050847;28;11457;-86
2023/04/02 10:25:18;;;;;;;;;19.25;13.00;;;;;;;;5104505;28;11375;-90
2023/04/02 10:28:03;;;;;;;;;12.75;9.00;;;;;;;;5085491;28;11370;-90
2023/04/02 10:30:38;;;;;;;;;9.50;7.25;;;;;;;;5041572;28;11353;-88
2023/04/02 10:33:12;;;;;;;;;19.25;15.25;;;;;;;;5065600;28;11437;-88
2023/04/02 10:35:50;;;;;;;;;21.50;16.50;;;;;;;;5065142;28;11435;-86
2023/04/02 10:38:27;;;;;;;;;12.75;11.25;;;;;;;;5083816;28;11340;-88
2023/04/02 10:41:12;;;;;;;;;15.75;10.25;;;;;;;;5084324;28;12330;-88
2023/04/02 10:43:43;;;;;;;;;11.25;10.00;;;;;;;;5004640;28;11536;-87
2023/04/02 10:46:27;;;;;;;;;36.25;24.75;;;;;;;;5005481;28;11473;-87
2023/04/02 10:48:58;;;;;;;;;27.50;21.50;;;;;;;;5021474;28;11580;-87
2023/04/02 10:51:47;;;;;;;;;23.25;22.75;;;;;;;;5005025;28;11596;-88
2023/04/02 10:54:20;;;;;;;;;20.25;18.50;;;;;;;;5016545;28;11542;-86
2023/04/02 10:56:45;;;;;;;;;16.25;13.25;;;;;;;;5024667;28;11667;-87
2023/04/02 10:59:16;;;;;;;;;18.00;11.75;;;;;;;;5041656;28;12266;-88
2023/04/02 11:01:42;;;;;;;;;17.25;13.75;;;;;;;;5024500;28;9899;-88
2023/04/02 11:04:16;;;;;;;;;15.00;8.50;;;;;;;;5042105;28;11424;-87
2023/04/02 11:06:45;;;;;;;;;16.50;11.25;;;;;;;;5042086;28;11776;-89
2023/04/02 11:09:16;;;;;;;;;19.00;12.75;;;;;;;;5024879;28;12365;-86
2023/04/02 11:11:43;;;;;;;;;10.75;9.75;;;;;;;;5040290;28;11424;-86
2023/04/02 11:14:08;;;;;;;;;14.25;9.00;;;;;;;;5024351;28;11509;-86
2023/04/02 11:16:34;;;;;;;;;15.00;11.25;;;;;;;;5040638;28;11475;-87
2023/04/02 11:19:09;;;;;;;;;16.50;15.50;;;;;;;;5024425;28;8806;-87
2023/04/02 11:21:34;;;;;;;;;15.75;12.50;;;;;;;;5095022;28;8788;-86
2023/04/02 11:24:00;;;;;;;;;12.25;12.25;;;;;;;;5085675;28;11432;-87
2023/04/02 11:26:45;;;;;;;;;9.00;8.75;;;;;;;;5084786;28;8808;-85
2023/04/02 11:29:15;;;;;;;;;15.00;11.25;;;;;;;;5085657;28;11371;-88
2023/04/02 11:31:41;;;;;;;;;13.50;13.25;;;;;;;;5103719;28;11397;-87
2023/04/02 11:34:11;;;;;;;;;16.75;9.75;;;;;;;;5085545;28;11415;-88
2023/04/02 11:36:52;;;;;;;;;12.75;11.00;;;;;;;;5102757;28;11356;-87
2023/04/02 11:39:54;;;;;;;;;13.25;11.75;;;;;;;;5103293;28;11332;-87
2023/04/02 11:42:25;;;;;;;;;18.50;13.50;;;;;;;;5043074;28;11446;-88
2023/04/02 11:44:51;;;;;;;;;10.00;9.00;;;;;;;;5085784;28;11395;-88
2023/04/02 11:47:18;;;;;;;;;11.50;10.00;;;;;;;;5085716;28;11388;-87
2023/04/02 11:50:03;;;;;;;;;13.50;13.50;;;;;;;;5085030;28;11372;-87
2023/04/02 11:52:36;;;;;;;;;21.50;13.00;;;;;;;;5082519;28;11569;-87
2023/04/02 11:55:02;;;;;;;;;17.75;13.50;;;;;;;;5084137;28;12343;-87
2023/04/02 11:57:39;;;;;;;;;13.00;9.50;;;;;;;;5067114;28;11453;-88
2023/04/02 12:00:11;;;;;;;;;10.25;10.25;;;;;;;;5083026;28;8782;-88
2023/04/02 12:02:55;;;;;;;;;11.50;11.25;;;;;;;;5083194;28;11368;-87
2023/04/02 12:05:25;;;;;;;;;21.25;13.50;;;;;;;;5064725;28;11371;-87
2023/04/02 12:07:54;;;;;;;;;15.75;11.00;;;;;;;;5064464;28;11413;-87
2023/04/02 12:10:38;;;;;;;;;15.75;10.75;;;;;;;;5064498;28;11327;-87
2023/04/02 12:13:04;;;;;;;;;13.25;9.75;;;;;;;;5082353;28;11420;-87
2023/04/02 12:15:35;;;;;;;;;13.25;10.00;;;;;;;;5065282;28;11452;-87
2023/04/02 12:18:21;;;;;;;;;15.50;10.50;;;;;;;;5082904;28;8845;-88
2023/04/02 12:20:55;;;;;;;;;11.50;10.50;;;;;;;;5064418;28;11359;-89
2023/04/02 12:23:28;;;;;;;;;10.00;9.25;;;;;;;;5074133;28;11452;-87
2023/04/02 12:26:00;;;;;;;;;13.25;11.50;;;;;;;;5101344;28;11379;-87
2023/04/02 12:28:32;;;;;;;;;14.75;13.25;;;;;;;;5084086;28;11398;-86
2023/04/02 12:31:03;;;;;;;;;15.50;11.00;;;;;;;;5084600;28;12424;-87
2023/04/02 12:33:32;;;;;;;;;19.00;14.50;;;;;;;;5084406;28;11366;-87
2023/04/02 12:35:58;;;;;;;;;16.00;13.75;;;;;;;;5084224;28;11400;-87
2023/04/02 12:38:26;;;;;;;;;20.75;11.50;;;;;;;;5102520;28;11401;-88
2023/04/02 12:40:52;;;;;;;;;16.25;12.50;;;;;;;;5084466;28;11367;-87
2023/04/02 12:43:22;;;;;;;;;13.00;9.75;;;;;;;;5084212;28;11437;-86
2023/04/02 12:45:50;;;;;;;;;15.00;12.50;;;;;;;;5084323;28;11403;-87
2023/04/02 12:48:16;;;;;;;;;18.00;15.75;;;;;;;;5103048;28;11347;-87
2023/04/02 12:50:41;;;;;;;;;15.25;11.75;;;;;;;;5102807;28;11420;-87
2023/04/02 12:53:12;;;;;;;;;14.00;11.25;;;;;;;;5083555;28;9885;-87
2023/04/02 12:55:37;;;;;;;;;17.25;14.00;;;;;;;;5083657;28;8739;-87
2023/04/02 12:58:02;;;;;;;;;13.25;12.50;;;;;;;;5080009;28;11565;-88
2023/04/02 13:00:29;;;;;;;;;12.75;11.75;;;;;;;;5064630;28;8811;-88
2023/04/02 13:02:59;;;;;;;;;16.75;12.25;;;;;;;;5080135;28;8738;-89
2023/04/02 13:05:34;;;;;;;;;19.75;14.75;;;;;;;;5062492;28;11392;-88
2023/04/02 13:08:00;;;;;;;;;23.75;22.25;;;;;;;;5063761;28;11423;-88
2023/04/02 13:10:26;;;;;;;;;16.75;14.00;;;;;;;;5082704;28;11466;-87
2023/04/02 13:12:56;;;;;;;;;17.00;11.50;;;;;;;;5082339;28;8902;-87
2023/04/02 13:15:27;;;;;;;;;13.50;11.75;;;;;;;;5063981;28;11459;-88
2023/04/02 13:18:13;;;;;;;;;18.00;15.50;;;;;;;;5083203;28;12385;-89
2023/04/02 13:20:40;;;;;;;;;17.25;14.00;;;;;;;;5084044;28;11447;-87
2023/04/02 13:23:24;;;;;;;;;6.00;3.00;;;;;;;;5101540;28;11578;-88
2023/04/02 13:25:49;;;;;;;;;16.00;11.00;;;;;;;;5083668;28;12291;-88
2023/04/02 13:28:15;;;;;;;;;11.25;8.25;;;;;;;;5083810;28;11429;-87
2023/04/02 13:30:40;;;;;;;;;13.75;12.00;;;;;;;;5102546;28;8896;-88
2023/04/02 13:33:06;;;;;;;;;11.75;7.50;;;;;;;;5102196;28;8791;-88
2023/04/02 13:35:31;;;;;;;;;13.25;11.00;;;;;;;;5102039;28;8786;-88
2023/04/02 13:37:56;;;;;;;;;10.75;9.50;;;;;;;;5105290;28;8864;-89
2023/04/02 13:40:22;;;;;;;;;8.50;7.25;;;;;;;;5105710;28;8795;-88
2023/04/02 13:42:47;;;;;;;;;12.50;10.00;;;;;;;;5086870;28;9833;-88
2023/04/02 13:45:25;;;;;;;;;13.50;10.00;;;;;;;;5086912;28;8885;-89
2023/04/02 13:47:50;;;;;;;;;13.50;10.50;;;;;;;;5076621;28;8816;-89
2023/04/02 13:50:17;;;;;;;;;8.50;7.00;;;;;;;;5066839;28;11396;-89
2023/04/02 13:52:42;;;;;;;;;11.75;7.50;;;;;;;;5085283;28;8983;-88
2023/04/02 13:55:09;;;;;;;;;14.75;13.50;;;;;;;;5084641;28;11498;-89
2023/04/02 13:57:34;;;;;;;;;18.50;9.50;;;;;;;;5084782;28;8778;-89
2023/04/02 13:59:59;;;;;;;;;9.00;8.00;;;;;;;;5067191;28;11426;-88
2023/04/02 14:02:25;;;;;;;;;13.00;9.25;;;;;;;;5092402;28;9570;-89
2023/04/02 14:04:54;;;;;;;;;9.50;7.75;;;;;;;;5086948;28;8900;-89
2023/04/02 14:07:25;;;;;;;;;9.00;8.00;;;;;;;;5105194;28;8759;-88
2023/04/02 14:09:53;;;;;;;;;11.00;10.75;;;;;;;;5105611;28;11370;-89
2023/04/02 14:12:32;;;;;;;;;9.25;6.00;;;;;;;;5087036;28;11350;-88
2023/04/02 14:14:58;;;;;;;;;8.25;7.00;;;;;;;;5078718;28;11339;-88
2023/04/02 14:17:24;;;;;;;;;8.75;8.75;;;;;;;;5066185;28;11158;-89
2023/04/02 14:20:16;;;;;;;;;11.00;9.00;;;;;;;;5066802;28;11367;-89
2023/04/02 14:22:44;;;;;;;;;9.75;8.75;;;;;;;;5087675;28;8820;-89
2023/04/02 14:25:24;;;;;;;;;10.25;8.75;;;;;;;;5105288;28;11477;-89
2023/04/02 14:27:50;;;;;;;;;12.75;10.50;;;;;;;;5086120;28;11397;-88
2023/04/02 14:30:20;;;;;;;;;11.50;10.00;;;;;;;;5086468;28;11305;-89
2023/04/02 14:32:46;;;;;;;;;7.75;7.75;;;;;;;;5104723;28;8817;-89
2023/04/02 14:35:20;;;;;;;;;11.75;9.50;;;;;;;;5086663;28;11378;-89
2023/04/02 14:38:04;;;;;;;;;10.50;9.50;;;;;;;;5104970;28;8967;-89
2023/04/02 14:40:50;;;;;;;;;8.25;7.00;;;;;;;;5086480;28;11370;-88
2023/04/02 14:43:34;;;;;;;;;7.75;7.75;;;;;;;;5104532;28;11358;-88
2023/04/02 14:46:04;;;;;;;;;8.00;5.75;;;;;;;;5104829;28;11320;-87
2023/04/02 14:48:49;;;;;;;;;7.50;5.25;;;;;;;;5085331;28;11763;-88
2023/04/02 14:51:21;;;;;;;;;13.00;8.50;;;;;;;;5104505;28;11336;-89
2023/04/02 14:54:04;;;;;;;;;11.25;8.50;;;;;;;;5104229;28;11504;-89
2023/04/02 14:56:35;;;;;;;;;17.25;14.50;;;;;;;;5103152;28;11339;-89
2023/04/02 14:59:16;;;;;;;;;10.00;8.50;;;;;;;;5086586;28;11412;-88
2023/04/02 15:01:43;;;;;;;;;11.25;8.00;;;;;;;;5104227;28;11346;-88